createdAt,value
2024-03-12T00:01:57.429Z,83.67
2024-03-12T00:07:02.997Z,84.37
2024-03-12T00:12:07.001Z,84.28
2024-03-12T00:17:09.519Z,84.23
2024-03-12T00:22:12.648Z,83.52
2024-03-12T00:27:15.222Z,84.83
2024-03-12T00:32:20.109Z,86.02
2024-03-12T00:37:22.322Z,86.12
2024-03-12T00:42:24.516Z,85.93
2024-03-12T00:47:26.736Z,87.19
2024-03-12T00:52:30.397Z,87.92
2024-03-12T00:57:35.479Z,88.72
2024-03-12T01:02:38.905Z,88.50
2024-03-12T01:07:41.110Z,86.59
2024-03-12T01:12:44.798Z,86.30
2024-03-12T01:17:47.725Z,87.21
2024-03-12T01:22:53.501Z,87.76
2024-03-12T01:28:00.412Z,88.45
2024-03-12T01:33:04.305Z,88.72
2024-03-12T01:38:06.704Z,89.25
2024-03-12T01:43:11.605Z,88.81
2024-03-12T01:48:13.856Z,89.05
2024-03-12T01:53:16.734Z,90.87
2024-03-12T01:58:19.930Z,91.60
2024-03-12T02:03:22.781Z,92.55
2024-03-12T02:08:25.935Z,92.51
2024-03-12T02:13:28.236Z,92.84
2024-03-12T02:18:30.823Z,92.23
2024-03-12T02:23:39.984Z,92.21
2024-03-12T02:28:42.819Z,91.77
2024-03-12T02:33:44.830Z,92.06
2024-03-12T02:38:47.466Z,92.59
2024-03-12T02:43:49.750Z,92.97
2024-03-12T02:48:53.413Z,93.00
2024-03-12T02:53:56.186Z,93.64
2024-03-12T02:58:58.514Z,93.56
2024-03-12T03:04:01.289Z,94.12
2024-03-12T03:09:06.769Z,94.77
2024-03-12T03:14:08.887Z,95.17
2024-03-12T03:19:11.829Z,95.26
2024-03-12T03:24:15.302Z,95.56
2024-03-12T03:29:17.607Z,95.77
2024-03-12T03:34:19.818Z,95.50
2024-03-12T03:39:22.302Z,94.52
2024-03-12T03:44:24.621Z,96.42
2024-03-12T03:49:27.185Z,96.83
2024-03-12T03:54:30.037Z,96.77
2024-03-12T03:59:33.169Z,97.82
2024-03-12T04:04:35.907Z,98.21
2024-03-12T04:09:39.068Z,98.77
2024-03-12T04:14:43.459Z,98.63
2024-03-12T04:19:49.180Z,98.54
2024-03-12T04:24:51.821Z,98.16
2024-03-12T04:29:54.334Z,98.00
2024-03-12T04:34:56.629Z,97.78
2024-03-12T04:40:00.559Z,97.91
2024-03-12T04:45:02.970Z,97.85
2024-03-12T04:50:06.060Z,97.63
2024-03-12T04:55:09.133Z,98.46
2024-03-12T05:00:21.155Z,99.05
2024-03-12T05:05:25.038Z,99.25
2024-03-12T05:10:28.731Z,99.45
2024-03-12T05:15:31.471Z,100.00
2024-03-12T05:20:37.722Z,100.00
2024-03-12T05:25:43.717Z,100.00
2024-03-12T05:30:45.712Z,100.00
2024-03-12T05:35:52.732Z,100.00
2024-03-12T05:40:58.986Z,100.00
2024-03-12T05:46:20.186Z,100.00
2024-03-12T05:51:23.114Z,100.00
2024-03-12T05:56:25.299Z,100.00
2024-03-12T06:01:28.395Z,100.00
2024-03-12T06:06:34.043Z,100.00
2024-03-12T06:11:36.581Z,100.00
2024-03-12T06:16:38.986Z,100.00
2024-03-12T06:21:41.568Z,100.00
2024-03-12T06:26:43.876Z,100.00
2024-03-12T06:31:46.774Z,100.00
2024-03-12T06:36:51.017Z,100.00
2024-03-12T06:41:53.463Z,100.00
2024-03-12T06:46:56.117Z,100.00
2024-03-12T06:51:58.141Z,100.00
2024-03-12T06:57:08.819Z,100.00
2024-03-12T07:02:12.936Z,100.00
2024-03-12T07:07:19.717Z,100.00
2024-03-12T07:12:21.913Z,100.00
2024-03-12T07:17:24.306Z,100.00
2024-03-12T07:22:26.682Z,100.00
2024-03-12T07:27:29.484Z,100.00
2024-03-12T07:32:31.827Z,100.00
2024-03-12T07:37:43.286Z,100.00
2024-03-12T07:42:45.772Z,100.00
2024-03-12T07:47:48.195Z,100.00
2024-03-12T07:52:50.246Z,100.00
2024-03-12T07:57:52.809Z,100.00
2024-03-12T08:02:54.807Z,100.00
2024-03-12T08:07:57.285Z,100.00
2024-03-12T08:13:00.463Z,100.00
2024-03-12T08:18:12.659Z,100.00
2024-03-12T08:23:21.068Z,99.59
2024-03-12T08:28:24.063Z,99.11
2024-03-12T08:33:26.736Z,98.19
2024-03-12T08:38:30.204Z,94.96
2024-03-12T08:43:32.690Z,95.47
2024-03-12T08:48:36.049Z,93.69
2024-03-12T08:53:38.500Z,92.85
2024-03-12T08:58:40.834Z,91.40
2024-03-12T09:03:46.628Z,87.27
2024-03-12T09:08:50.984Z,83.85
2024-03-12T09:13:53.129Z,79.15
2024-03-12T09:18:56.034Z,71.59
2024-03-12T09:24:02.162Z,65.28
2024-03-12T09:29:07.259Z,59.79
2024-03-12T09:34:10.775Z,54.84
2024-03-12T09:39:13.521Z,52.61
2024-03-12T09:44:16.903Z,49.73
2024-03-12T09:49:22.255Z,48.22
2024-03-12T09:54:25.006Z,46.82
2024-03-12T09:59:26.999Z,48.09
2024-03-12T10:04:29.875Z,47.89
2024-03-12T10:09:32.409Z,46.05
2024-03-12T10:14:35.494Z,45.51
2024-03-12T10:19:38.310Z,46.36
2024-03-12T10:24:40.567Z,45.82
2024-03-12T10:29:43.458Z,44.59
2024-03-12T10:34:46.494Z,44.98
2024-03-12T10:39:49.257Z,42.90
2024-03-12T10:44:51.559Z,43.99
2024-03-12T10:49:54.092Z,42.32
2024-03-12T10:55:05.758Z,42.24
2024-03-12T11:00:13.782Z,40.89
2024-03-12T11:05:18.782Z,40.96
2024-03-12T11:10:21.635Z,40.87
2024-03-12T11:15:27.105Z,40.69
2024-03-12T11:20:30.330Z,40.26
2024-03-12T11:25:40.170Z,39.91
2024-03-12T11:30:44.046Z,40.41
2024-03-12T11:35:47.948Z,40.13
2024-03-12T11:40:52.411Z,40.65
2024-03-12T11:45:56.103Z,42.58
2024-03-12T11:51:00.594Z,43.70
2024-03-12T11:56:26.279Z,43.11
2024-03-12T12:01:36.067Z,43.93
2024-03-12T12:06:38.979Z,44.19
2024-03-12T12:11:41.958Z,44.04
2024-03-12T12:16:44.418Z,44.74
2024-03-12T12:21:46.908Z,45.46
2024-03-12T12:26:49.130Z,45.06
2024-03-12T12:31:53.209Z,45.69
2024-03-12T12:36:55.769Z,46.10
2024-03-12T12:41:59.524Z,46.94
2024-03-12T12:47:04.866Z,47.95
2024-03-12T12:52:08.530Z,47.13
2024-03-12T12:57:12.245Z,47.11
2024-03-12T13:02:16.152Z,45.57
2024-03-12T13:07:31.533Z,46.16
2024-03-12T13:12:34.738Z,46.64
2024-03-12T13:17:37.461Z,46.26
2024-03-12T13:22:40.831Z,45.17
2024-03-12T13:27:47.050Z,45.24
2024-03-12T13:32:50.180Z,46.59
2024-03-12T13:37:52.907Z,48.24
2024-03-12T13:42:55.726Z,47.65
2024-03-12T13:47:58.802Z,48.18
2024-03-12T13:53:02.900Z,47.73
2024-03-12T13:58:06.153Z,45.88
2024-03-12T14:03:11.486Z,47.44
2024-03-12T14:08:17.902Z,46.74
2024-03-12T14:13:20.569Z,47.76
2024-03-12T14:18:24.944Z,47.99
2024-03-12T14:23:27.839Z,47.17
2024-03-12T14:28:31.186Z,47.30
2024-03-12T14:33:35.025Z,47.57
2024-03-12T14:38:37.882Z,46.28
2024-03-12T14:43:40.315Z,45.35
2024-03-12T14:48:42.868Z,44.32
2024-03-12T14:53:45.506Z,43.49
2024-03-12T14:58:48.306Z,43.64
2024-03-12T15:03:52.558Z,43.67
2024-03-12T15:08:57.330Z,45.24
2024-03-12T15:13:59.852Z,44.15
2024-03-12T15:19:02.475Z,43.84
2024-03-12T15:24:06.027Z,44.25
2024-03-12T15:29:47.072Z,45.47
2024-03-12T15:35:18.939Z,44.46
2024-03-12T15:40:56.420Z,45.73
2024-03-12T15:46:33.260Z,45.32
2024-03-12T15:52:09.367Z,43.78
2024-03-12T15:57:47.337Z,45.07
2024-03-12T16:03:23.232Z,45.06
2024-03-12T16:09:01.427Z,45.82
2024-03-12T16:14:38.820Z,43.90
2024-03-12T16:19:54.150Z,46.94
2024-03-12T16:24:56.481Z,47.58
2024-03-12T16:29:58.907Z,46.30
2024-03-12T16:35:04.598Z,45.62
2024-03-12T16:40:10.682Z,46.49
2024-03-12T16:45:14.757Z,46.93
2024-03-12T16:50:17.969Z,47.48
2024-03-12T16:55:20.613Z,46.83
2024-03-12T17:00:23.112Z,47.47
2024-03-12T17:05:26.251Z,49.61
2024-03-12T17:10:29.027Z,48.55
2024-03-12T17:15:32.685Z,48.49
2024-03-12T17:20:35.633Z,48.17
2024-03-12T17:25:39.645Z,49.27
2024-03-12T17:30:43.030Z,48.84
2024-03-12T17:35:45.518Z,51.40
2024-03-12T17:41:10.501Z,51.35
2024-03-12T17:46:46.462Z,51.77
2024-03-12T17:52:03.352Z,54.38
2024-03-12T17:57:06.761Z,53.56
2024-03-12T18:02:11.510Z,56.87
2024-03-12T18:07:27.231Z,55.67
2024-03-12T18:12:29.542Z,56.30
2024-03-12T18:17:32.217Z,58.54
2024-03-12T18:22:35.854Z,60.31
2024-03-12T18:27:39.166Z,61.54
2024-03-12T18:32:42.273Z,62.19
2024-03-12T18:37:46.425Z,62.75
2024-03-12T18:42:49.710Z,63.41
2024-03-12T18:47:57.598Z,62.34
2024-03-12T18:53:00.014Z,65.97
2024-03-12T18:58:02.492Z,66.05
2024-03-12T19:03:06.724Z,65.19
2024-03-12T19:08:12.319Z,65.75
2024-03-12T19:13:16.743Z,65.73
2024-03-12T19:18:21.667Z,66.69
2024-03-12T19:23:26.314Z,67.40
2024-03-12T19:28:28.681Z,68.63
2024-03-12T19:33:34.433Z,68.86
2024-03-12T19:38:36.888Z,68.94
2024-03-12T19:43:39.886Z,73.30
2024-03-12T19:48:43.354Z,72.94
2024-03-12T19:53:45.635Z,71.93
2024-03-12T19:58:48.525Z,73.02
2024-03-12T20:03:51.068Z,75.25
2024-03-12T20:08:53.570Z,74.41
2024-03-12T20:13:56.673Z,75.67
2024-03-12T20:18:59.038Z,75.86
2024-03-12T20:24:01.178Z,75.80
2024-03-12T20:29:03.323Z,75.01
2024-03-12T20:34:09.893Z,75.56
2024-03-12T20:39:13.711Z,75.39
2024-03-12T20:44:15.845Z,75.76
2024-03-12T20:49:18.159Z,76.68
2024-03-12T20:54:21.395Z,78.48
2024-03-12T20:59:24.981Z,79.58
2024-03-12T21:04:27.535Z,80.60
2024-03-12T21:09:29.802Z,80.12
2024-03-12T21:14:32.704Z,80.41
2024-03-12T21:19:35.204Z,80.36
2024-03-12T21:24:37.755Z,80.37
2024-03-12T21:29:43.456Z,80.08
2024-03-12T21:34:47.477Z,80.59
2024-03-12T21:39:50.166Z,80.31
2024-03-12T21:44:55.207Z,81.10
2024-03-12T21:49:57.651Z,81.43
2024-03-12T21:55:00.965Z,82.00
2024-03-12T22:00:11.846Z,82.51
2024-03-12T22:05:15.990Z,82.69
2024-03-12T22:10:18.424Z,82.86
2024-03-12T22:15:20.881Z,83.68
2024-03-12T22:20:23.559Z,83.20
2024-03-12T22:25:26.053Z,84.11
2024-03-12T22:30:29.470Z,84.58
2024-03-12T22:35:31.495Z,85.33
2024-03-12T22:40:35.411Z,85.30
2024-03-12T22:45:37.933Z,85.80
2024-03-12T22:50:41.460Z,86.55
2024-03-12T22:55:44.278Z,87.70
2024-03-12T23:00:48.350Z,87.90
2024-03-12T23:05:50.696Z,88.35
2024-03-12T23:10:53.352Z,88.82
2024-03-12T23:15:55.619Z,88.97
2024-03-12T23:20:58.191Z,88.63
2024-03-12T23:26:03.116Z,89.29
2024-03-12T23:31:05.512Z,90.65
2024-03-12T23:36:08.869Z,90.65
2024-03-12T23:41:13.088Z,91.12
2024-03-12T23:46:16.968Z,90.95
2024-03-12T23:51:19.156Z,90.97
2024-03-12T23:56:25.890Z,91.41
